Terminal Aerodrome Forecast
Issued by NWS Wilmington, NC

Home | Current Version | Previous Version | Text Only | Print | Product List | Glossary On
Versions: 1 2 3 4 5 6 7 8 9 10 11 12 13 14 15 16 17 18 19 20 21 22 23 24 25
000
FTUS42 KILM 201346 AAA
TAFILM
TAF AMD
KILM 201346Z 2014/2112 16004KT 6SM BR VCSH FEW002 FEW015 SCT023
      TEMPO 2014/2015 6SM BR BKN050
     FM201500 17008KT P6SM BKN035
     FM210200 17003KT P6SM SCT025 BKN040
     FM210700 VRB03KT 1SM BR BKN003=

USA.gov is the U.S. government's official web portal to all federal, state and local government web resources and services.